createdAt,value
2022-11-10T00:01:07.926Z,11.17
2022-11-10T00:03:36.126Z,11.18
2022-11-10T00:06:04.188Z,11.14
2022-11-10T00:08:30.958Z,11.16
2022-11-10T00:10:58.072Z,11.02
2022-11-10T00:13:26.554Z,10.96
2022-11-10T00:16:12.288Z,10.90
2022-11-10T00:18:39.267Z,10.86
2022-11-10T00:21:10.371Z,10.84
2022-11-10T00:23:36.987Z,10.78
2022-11-10T00:26:04.609Z,10.70
2022-11-10T00:28:32.561Z,10.55
2022-11-10T00:30:59.356Z,10.63
2022-11-10T00:33:26.067Z,10.57
2022-11-10T00:35:52.645Z,10.50
2022-11-10T00:38:19.270Z,10.57
2022-11-10T00:40:45.902Z,10.45
2022-11-10T00:43:12.438Z,10.27
2022-11-10T00:45:42.523Z,10.21
2022-11-10T00:48:09.168Z,10.25
2022-11-10T00:50:36.016Z,10.27
2022-11-10T00:53:02.691Z,10.18
2022-11-10T00:55:29.378Z,10.29
2022-11-10T00:57:56.200Z,10.33
2022-11-10T01:00:23.012Z,10.32
2022-11-10T01:02:49.587Z,10.16
2022-11-10T01:05:16.274Z,10.21
2022-11-10T01:07:42.981Z,10.06
2022-11-10T01:10:09.672Z,10.16
2022-11-10T01:12:36.458Z,10.15
2022-11-10T01:15:03.451Z,10.15
2022-11-10T01:17:30.906Z,10.18
2022-11-10T01:19:57.619Z,10.30
2022-11-10T01:22:24.460Z,10.10
2022-11-10T01:24:51.123Z,10.04
2022-11-10T01:27:17.894Z,10.02
2022-11-10T01:29:44.675Z,10.07
2022-11-10T01:32:11.394Z,9.95
2022-11-10T01:34:38.097Z,9.97
2022-11-10T01:37:04.730Z,9.99
2022-11-10T01:39:31.366Z,9.93
2022-11-10T01:41:58.036Z,9.82
2022-11-10T01:44:26.032Z,9.86
2022-11-10T01:46:52.733Z,9.77
2022-11-10T01:49:28.275Z,9.79
2022-11-10T01:52:08.050Z,9.83
2022-11-10T01:54:39.060Z,9.82
2022-11-10T01:57:10.288Z,9.77
2022-11-10T01:59:42.472Z,9.74
2022-11-10T02:02:16.993Z,9.76
2022-11-10T02:04:43.764Z,9.72
2022-11-10T02:07:11.344Z,9.71
2022-11-10T02:09:38.132Z,9.70
2022-11-10T02:12:05.888Z,9.62
2022-11-10T02:14:32.673Z,9.61
2022-11-10T02:16:59.432Z,9.63
2022-11-10T02:19:26.861Z,9.51
2022-11-10T02:21:53.528Z,9.56
2022-11-10T02:24:20.330Z,9.51
2022-11-10T02:26:52.891Z,9.52
2022-11-10T02:29:20.440Z,9.42
2022-11-10T02:31:47.108Z,9.30
2022-11-10T02:34:13.961Z,9.41
2022-11-10T02:36:40.798Z,9.41
2022-11-10T02:39:07.487Z,9.26
2022-11-10T02:41:34.064Z,9.32
2022-11-10T02:44:01.090Z,9.27
2022-11-10T02:46:27.857Z,9.30
2022-11-10T02:48:54.377Z,9.22
2022-11-10T02:51:21.086Z,9.16
2022-11-10T02:53:47.793Z,9.13
2022-11-10T02:56:14.492Z,9.05
2022-11-10T02:58:41.197Z,9.01
2022-11-10T03:01:07.958Z,9.02
2022-11-10T03:03:34.804Z,9.09
2022-11-10T03:06:02.411Z,9.17
2022-11-10T03:08:29.019Z,9.13
2022-11-10T03:10:56.790Z,9.27
2022-11-10T03:13:25.233Z,9.27
2022-11-10T03:15:52.231Z,9.29
2022-11-10T03:18:19.014Z,9.35
2022-11-10T03:20:48.194Z,9.22
2022-11-10T03:23:15.920Z,9.22
2022-11-10T03:25:43.271Z,8.98
2022-11-10T03:28:10.763Z,8.88
2022-11-10T03:30:38.571Z,8.85
2022-11-10T03:33:05.721Z,8.77
2022-11-10T03:35:32.385Z,8.73
2022-11-10T03:37:59.109Z,8.73
2022-11-10T03:40:25.716Z,8.78
2022-11-10T03:42:52.454Z,8.78
2022-11-10T03:45:19.413Z,8.81
2022-11-10T03:47:47.710Z,8.72
2022-11-10T03:50:15.615Z,8.76
2022-11-10T03:52:44.980Z,8.67
2022-11-10T03:55:14.468Z,8.76
2022-11-10T03:57:41.409Z,8.86
2022-11-10T04:00:09.808Z,8.81
2022-11-10T04:02:37.300Z,8.83
2022-11-10T04:05:24.079Z,8.74
2022-11-10T04:08:17.763Z,8.82
2022-11-10T04:10:44.975Z,8.92
2022-11-10T04:13:30.655Z,8.89
2022-11-10T04:15:57.535Z,8.91
2022-11-10T04:18:27.133Z,8.97
2022-11-10T04:20:59.185Z,8.87
2022-11-10T04:23:36.390Z,8.85
2022-11-10T04:26:29.374Z,8.86
2022-11-10T04:28:58.705Z,8.95
2022-11-10T04:31:27.215Z,8.91
2022-11-10T04:33:55.479Z,8.87
2022-11-10T04:36:25.084Z,8.99
2022-11-10T04:38:52.266Z,8.99
2022-11-10T04:41:19.189Z,8.97
2022-11-10T04:43:45.781Z,8.90
2022-11-10T04:46:20.663Z,8.94
2022-11-10T04:48:47.398Z,8.99
2022-11-10T04:51:14.928Z,8.82
2022-11-10T04:53:41.545Z,8.86
2022-11-10T04:56:13.867Z,8.85
2022-11-10T04:58:40.598Z,9.00
2022-11-10T05:01:07.437Z,8.93
2022-11-10T05:03:34.036Z,9.03
2022-11-10T05:06:00.613Z,9.00
2022-11-10T05:08:27.346Z,8.98
2022-11-10T05:10:53.951Z,8.96
2022-11-10T05:13:20.744Z,8.95
2022-11-10T05:15:47.673Z,8.96
2022-11-10T05:18:14.639Z,8.97
2022-11-10T05:20:41.397Z,9.07
2022-11-10T05:23:26.776Z,8.90
2022-11-10T05:25:53.336Z,9.05
2022-11-10T05:28:20.117Z,9.08
2022-11-10T05:30:46.801Z,8.86
2022-11-10T05:33:13.928Z,8.80
2022-11-10T05:35:41.393Z,8.80
2022-11-10T05:38:08.681Z,8.75
2022-11-10T05:40:35.466Z,8.79
2022-11-10T05:43:02.431Z,8.84
2022-11-10T05:45:29.366Z,8.77
2022-11-10T05:47:56.679Z,8.66
2022-11-10T05:50:24.271Z,8.71
2022-11-10T05:52:53.362Z,8.60
2022-11-10T05:55:23.881Z,8.73
2022-11-10T05:57:52.477Z,8.75
2022-11-10T06:00:21.963Z,8.60
2022-11-10T06:03:03.087Z,8.62
2022-11-10T06:05:35.453Z,8.59
2022-11-10T06:08:04.139Z,8.64
2022-11-10T06:10:32.194Z,8.68
2022-11-10T06:12:59.418Z,8.69
2022-11-10T06:15:27.146Z,8.66
2022-11-10T06:17:54.170Z,8.55
2022-11-10T06:20:21.538Z,8.47
2022-11-10T06:22:59.645Z,8.39
2022-11-10T06:25:26.663Z,8.52
2022-11-10T06:27:53.960Z,8.39
2022-11-10T06:30:21.034Z,8.28
2022-11-10T06:32:47.796Z,8.44
2022-11-10T06:35:14.468Z,8.49
2022-11-10T06:37:41.420Z,8.53
2022-11-10T06:40:10.842Z,8.50
2022-11-10T06:42:37.428Z,8.68
2022-11-10T06:45:04.642Z,8.78
2022-11-10T06:47:31.655Z,8.69
2022-11-10T06:49:58.354Z,8.84
2022-11-10T06:52:25.025Z,8.82
2022-11-10T06:54:51.623Z,8.95
2022-11-10T06:57:18.268Z,8.99
2022-11-10T06:59:44.913Z,9.03
2022-11-10T07:02:14.626Z,9.03
2022-11-10T07:04:43.029Z,8.98
2022-11-10T07:07:10.748Z,9.06
2022-11-10T07:09:38.123Z,9.05
2022-11-10T07:12:05.200Z,9.03
2022-11-10T07:14:31.872Z,9.24
2022-11-10T07:16:58.444Z,9.34
2022-11-10T07:19:25.018Z,9.46
2022-11-10T07:21:51.962Z,9.62
2022-11-10T07:24:18.555Z,9.80
2022-11-10T07:26:45.558Z,9.89
2022-11-10T07:29:12.273Z,9.98
2022-11-10T07:31:38.873Z,10.04
2022-11-10T07:34:05.587Z,10.17
2022-11-10T07:36:32.204Z,10.23
2022-11-10T07:38:58.958Z,10.35
2022-11-10T07:41:25.732Z,10.42
2022-11-10T07:43:52.396Z,10.57
2022-11-10T07:46:19.133Z,10.61
2022-11-10T07:48:45.757Z,10.59
2022-11-10T07:51:12.374Z,10.42
2022-11-10T07:53:40.007Z,10.44
2022-11-10T07:56:07.131Z,10.35
2022-11-10T07:58:34.376Z,10.26
2022-11-10T08:01:01.995Z,10.25
2022-11-10T08:03:28.663Z,10.14
2022-11-10T08:05:56.120Z,10.15
2022-11-10T08:08:22.771Z,10.07
2022-11-10T08:10:49.399Z,10.20
2022-11-10T08:13:16.582Z,10.53
2022-11-10T08:15:43.273Z,10.87
2022-11-10T08:18:22.651Z,10.95
2022-11-10T08:20:49.618Z,11.07
2022-11-10T08:23:17.022Z,11.21
2022-11-10T08:25:44.223Z,11.42
2022-11-10T08:28:14.390Z,11.52
2022-11-10T08:30:42.386Z,11.71
2022-11-10T08:33:11.549Z,11.81
2022-11-10T08:35:40.633Z,11.98
2022-11-10T08:38:12.403Z,12.01
2022-11-10T08:40:40.477Z,12.23
2022-11-10T08:43:08.013Z,12.41
2022-11-10T08:45:39.404Z,12.36
2022-11-10T08:48:12.102Z,12.70
2022-11-10T08:50:39.256Z,12.80
2022-11-10T08:53:12.678Z,13.03
2022-11-10T08:55:40.365Z,13.11
2022-11-10T08:58:08.863Z,13.30
2022-11-10T09:00:35.532Z,13.65
2022-11-10T09:03:14.483Z,13.91
2022-11-10T09:05:41.913Z,14.09
2022-11-10T09:08:09.536Z,14.14
2022-11-10T09:10:39.111Z,13.86
2022-11-10T09:13:06.580Z,13.62
2022-11-10T09:15:34.596Z,13.61
2022-11-10T09:18:03.035Z,13.99
2022-11-10T09:20:31.432Z,13.96
2022-11-10T09:23:04.826Z,14.29
2022-11-10T09:25:31.376Z,14.21
2022-11-10T09:27:58.159Z,14.20
2022-11-10T09:30:25.538Z,14.37
2022-11-10T09:32:59.351Z,14.58
2022-11-10T09:35:26.844Z,14.54
2022-11-10T09:37:53.519Z,14.57
2022-11-10T09:40:50.777Z,15.02
2022-11-10T09:43:32.291Z,14.94
2022-11-10T09:46:03.737Z,14.81
2022-11-10T09:48:33.642Z,14.77
2022-11-10T09:51:08.998Z,14.78
2022-11-10T09:53:38.003Z,14.94
2022-11-10T09:56:06.611Z,14.92
2022-11-10T09:58:45.035Z,14.90
2022-11-10T10:01:33.587Z,14.79
2022-11-10T10:04:21.697Z,14.83
2022-11-10T10:07:17.433Z,14.88
2022-11-10T10:09:59.921Z,14.89
2022-11-10T10:12:39.692Z,15.31
2022-11-10T10:15:45.079Z,15.22
2022-11-10T10:18:27.123Z,15.22
2022-11-10T10:21:31.421Z,15.27
2022-11-10T10:24:14.044Z,14.93
2022-11-10T10:26:52.956Z,14.89
2022-11-10T10:29:25.550Z,14.90
2022-11-10T10:31:53.433Z,15.05
2022-11-10T10:34:30.340Z,15.01
2022-11-10T10:36:57.321Z,15.13
2022-11-10T10:39:52.239Z,15.03
2022-11-10T10:42:38.195Z,14.91
2022-11-10T10:45:26.912Z,14.94
2022-11-10T10:47:55.801Z,14.97
2022-11-10T10:50:28.435Z,15.10
2022-11-10T10:53:16.104Z,15.00
2022-11-10T10:55:59.890Z,15.03
2022-11-10T10:58:29.696Z,15.13
2022-11-10T11:01:06.010Z,14.91
2022-11-10T11:03:53.097Z,14.40
2022-11-10T11:06:27.840Z,14.26
2022-11-10T11:09:15.350Z,14.19
2022-11-10T11:11:44.791Z,14.01
2022-11-10T11:14:26.604Z,14.06
2022-11-10T11:16:55.348Z,14.08
2022-11-10T11:19:25.904Z,13.90
2022-11-10T11:21:58.371Z,14.12
2022-11-10T11:24:34.773Z,14.40
2022-11-10T11:27:05.351Z,14.63
2022-11-10T11:30:02.071Z,14.26
2022-11-10T11:32:55.920Z,14.07
2022-11-10T11:35:58.178Z,13.91
2022-11-10T11:38:32.658Z,14.03
2022-11-10T11:41:29.752Z,14.10
2022-11-10T11:44:08.815Z,14.04
2022-11-10T11:46:44.942Z,13.71
2022-11-10T11:50:03.757Z,13.51
2022-11-10T11:53:14.940Z,13.44
2022-11-10T11:56:24.399Z,13.44
2022-11-10T11:59:28.990Z,13.40
2022-11-10T12:02:02.901Z,13.46
2022-11-10T12:04:40.821Z,13.43
2022-11-10T12:07:10.065Z,13.27
2022-11-10T12:09:49.654Z,13.32
2022-11-10T12:12:30.530Z,13.46
2022-11-10T12:15:09.187Z,13.72
2022-11-10T12:18:00.843Z,13.93
2022-11-10T12:20:49.645Z,14.10
2022-11-10T12:23:27.725Z,14.02
2022-11-10T12:26:12.270Z,13.95
2022-11-10T12:28:47.585Z,13.80
2022-11-10T12:31:20.763Z,13.88
2022-11-10T12:33:57.435Z,13.69
2022-11-10T12:36:27.756Z,13.65
2022-11-10T12:39:07.287Z,13.58
2022-11-10T12:41:43.597Z,13.50
2022-11-10T12:44:26.772Z,13.64
2022-11-10T12:46:57.398Z,13.71
2022-11-10T12:49:32.534Z,13.62
2022-11-10T12:52:12.719Z,13.80
2022-11-10T12:54:46.713Z,13.75
2022-11-10T12:57:27.992Z,13.60
2022-11-10T13:00:29.052Z,13.62
2022-11-10T13:02:57.201Z,13.41
2022-11-10T13:05:29.077Z,13.40
2022-11-10T13:08:27.613Z,13.56
2022-11-10T13:11:06.202Z,13.61
2022-11-10T13:13:58.168Z,13.54
2022-11-10T13:16:38.990Z,13.58
2022-11-10T13:19:08.134Z,13.68
2022-11-10T13:21:53.016Z,13.66
2022-11-10T13:24:30.599Z,13.62
2022-11-10T13:27:02.303Z,13.53
2022-11-10T13:29:36.382Z,13.50
2022-11-10T13:32:15.313Z,13.55
2022-11-10T13:34:43.987Z,13.50
2022-11-10T13:37:29.467Z,13.64
2022-11-10T13:40:24.494Z,13.53
2022-11-10T13:42:56.874Z,13.49
2022-11-10T13:45:34.666Z,13.59
2022-11-10T13:48:18.555Z,13.58
2022-11-10T13:51:14.974Z,13.51
2022-11-10T13:54:00.004Z,13.55
2022-11-10T13:56:45.180Z,13.49
2022-11-10T13:59:21.516Z,13.32
2022-11-10T14:01:48.698Z,13.42
2022-11-10T14:04:39.432Z,13.36
2022-11-10T14:07:16.933Z,13.42
2022-11-10T14:09:51.299Z,13.41
2022-11-10T14:12:43.121Z,13.27
2022-11-10T14:15:12.552Z,13.19
2022-11-10T14:17:59.033Z,13.32
2022-11-10T14:20:43.576Z,13.14
2022-11-10T14:23:21.563Z,13.13
2022-11-10T14:25:56.041Z,13.07
2022-11-10T14:28:27.780Z,13.10
2022-11-10T14:30:55.930Z,12.95
2022-11-10T14:33:24.974Z,12.88
2022-11-10T14:36:08.925Z,12.85
2022-11-10T14:38:44.021Z,12.81
2022-11-10T14:41:18.132Z,12.88
2022-11-10T14:43:44.811Z,12.85
2022-11-10T14:46:14.953Z,12.73
2022-11-10T14:48:41.685Z,12.67
2022-11-10T14:51:18.815Z,12.62
2022-11-10T14:53:50.455Z,12.67
2022-11-10T14:56:21.023Z,12.60
2022-11-10T14:58:49.905Z,12.62
2022-11-10T15:01:27.079Z,12.47
2022-11-10T15:03:54.143Z,12.40
2022-11-10T15:06:21.675Z,12.34
2022-11-10T15:08:48.410Z,12.28
2022-11-10T15:11:47.362Z,12.28
2022-11-10T15:14:56.976Z,12.22
2022-11-10T15:17:44.798Z,12.16
2022-11-10T15:20:28.042Z,12.10
2022-11-10T15:22:58.713Z,11.96
2022-11-10T15:25:33.066Z,11.93
2022-11-10T15:28:21.621Z,11.84
2022-11-10T15:30:51.391Z,11.68
2022-11-10T15:33:24.260Z,11.66
2022-11-10T15:35:51.048Z,11.53
2022-11-10T15:38:27.069Z,11.54
2022-11-10T15:41:06.663Z,11.46
2022-11-10T15:43:33.299Z,11.43
2022-11-10T15:46:01.131Z,11.28
2022-11-10T15:48:37.271Z,11.28
2022-11-10T15:51:04.100Z,11.28
2022-11-10T15:53:39.100Z,11.16
2022-11-10T15:56:07.656Z,11.06
2022-11-10T15:58:34.381Z,10.93
2022-11-10T16:01:01.875Z,10.91
2022-11-10T16:03:28.555Z,10.82
2022-11-10T16:05:55.228Z,10.74
2022-11-10T16:08:23.049Z,10.60
2022-11-10T16:10:53.051Z,10.68
2022-11-10T16:13:26.615Z,10.66
2022-11-10T16:15:54.099Z,10.48
2022-11-10T16:18:26.288Z,10.42
2022-11-10T16:20:53.150Z,10.41
2022-11-10T16:23:20.385Z,10.35
2022-11-10T16:25:50.329Z,10.38
2022-11-10T16:28:23.773Z,10.30
2022-11-10T16:30:51.377Z,10.20
2022-11-10T16:33:20.501Z,10.23
2022-11-10T16:35:51.009Z,10.15
2022-11-10T16:38:21.760Z,10.10
2022-11-10T16:40:54.487Z,10.00
2022-11-10T16:43:21.337Z,9.91
2022-11-10T16:45:50.190Z,9.81
2022-11-10T16:48:21.074Z,9.80
2022-11-10T16:50:51.892Z,9.80
2022-11-10T16:53:31.124Z,9.71
2022-11-10T16:55:58.493Z,9.58
2022-11-10T16:58:27.373Z,9.63
2022-11-10T17:00:58.637Z,9.57
2022-11-10T17:03:34.430Z,9.63
2022-11-10T17:06:02.566Z,9.48
2022-11-10T17:08:31.918Z,9.49
2022-11-10T17:10:58.980Z,9.44
2022-11-10T17:13:26.249Z,9.43
2022-11-10T17:15:56.215Z,9.62
2022-11-10T17:18:24.883Z,9.74
2022-11-10T17:20:52.761Z,9.97
2022-11-10T17:23:24.348Z,10.01
2022-11-10T17:25:54.114Z,9.95
2022-11-10T17:28:21.029Z,10.03
2022-11-10T17:30:47.797Z,10.12
2022-11-10T17:33:14.766Z,10.20
2022-11-10T17:35:46.510Z,10.25
2022-11-10T17:38:21.272Z,10.30
2022-11-10T17:40:48.217Z,10.24
2022-11-10T17:43:15.204Z,10.26
2022-11-10T17:45:41.860Z,10.24
2022-11-10T17:48:09.075Z,10.28
2022-11-10T17:50:37.453Z,10.25
2022-11-10T17:53:15.564Z,10.20
2022-11-10T17:55:42.317Z,10.17
2022-11-10T17:58:12.100Z,10.20
2022-11-10T18:00:38.841Z,10.35
2022-11-10T18:03:08.819Z,10.43
2022-11-10T18:05:38.287Z,10.41
2022-11-10T18:08:05.028Z,10.43
2022-11-10T18:10:31.676Z,10.38
2022-11-10T18:12:58.278Z,10.30
2022-11-10T18:15:24.959Z,10.28
2022-11-10T18:17:51.552Z,10.42
2022-11-10T18:20:18.126Z,10.47
2022-11-10T18:22:44.746Z,10.38
2022-11-10T18:25:11.483Z,10.42
2022-11-10T18:27:38.167Z,10.46
2022-11-10T18:30:05.322Z,10.37
2022-11-10T18:32:32.102Z,10.33
2022-11-10T18:34:58.762Z,10.27
2022-11-10T18:37:25.602Z,10.17
2022-11-10T18:39:52.235Z,10.21
2022-11-10T18:42:18.953Z,10.12
2022-11-10T18:44:45.524Z,10.16
2022-11-10T18:47:13.089Z,10.15
2022-11-10T18:49:39.766Z,10.13
2022-11-10T18:52:06.534Z,10.28
2022-11-10T18:54:33.476Z,10.11
2022-11-10T18:57:00.026Z,10.19
2022-11-10T18:59:26.694Z,10.37
2022-11-10T19:01:54.009Z,10.35
2022-11-10T19:04:20.994Z,10.30
2022-11-10T19:06:47.580Z,10.25
2022-11-10T19:09:14.331Z,10.20
2022-11-10T19:11:41.015Z,10.28
2022-11-10T19:14:07.592Z,10.16
2022-11-10T19:16:34.290Z,10.20
2022-11-10T19:19:00.963Z,10.23
2022-11-10T19:21:27.929Z,10.26
2022-11-10T19:23:58.993Z,10.14
2022-11-10T19:26:26.864Z,10.11
2022-11-10T19:28:55.632Z,10.03
2022-11-10T19:31:23.880Z,10.08
2022-11-10T19:33:53.731Z,10.14
2022-11-10T19:36:23.055Z,10.11
2022-11-10T19:38:50.036Z,10.20
2022-11-10T19:41:20.711Z,10.21
2022-11-10T19:43:47.880Z,10.14
2022-11-10T19:46:20.520Z,10.06
2022-11-10T19:48:47.317Z,10.08
2022-11-10T19:51:16.274Z,10.10
2022-11-10T19:53:44.882Z,10.08
2022-11-10T19:56:17.291Z,9.99
2022-11-10T19:58:44.004Z,10.03
2022-11-10T20:01:12.356Z,9.96
2022-11-10T20:03:39.772Z,10.05
2022-11-10T20:06:19.352Z,10.03
2022-11-10T20:08:46.456Z,10.03
2022-11-10T20:11:16.453Z,10.03
2022-11-10T20:13:43.463Z,9.99
2022-11-10T20:16:11.914Z,9.95
2022-11-10T20:18:39.999Z,9.98
2022-11-10T20:21:08.209Z,9.96
2022-11-10T20:23:34.845Z,9.93
2022-11-10T20:26:11.062Z,9.89
2022-11-10T20:28:39.597Z,9.90
2022-11-10T20:31:10.379Z,9.87
2022-11-10T20:33:37.750Z,9.90
2022-11-10T20:36:20.155Z,9.95
2022-11-10T20:38:48.798Z,9.83
2022-11-10T20:41:21.655Z,9.84
2022-11-10T20:43:49.141Z,9.71
2022-11-10T20:46:40.221Z,9.70
2022-11-10T20:49:05.556Z,9.75
2022-11-10T20:51:32.284Z,9.67
2022-11-10T20:54:00.619Z,9.65
2022-11-10T20:56:29.855Z,9.64
2022-11-10T20:58:57.746Z,9.53
2022-11-10T21:01:25.102Z,9.49
2022-11-10T21:03:52.230Z,9.39
2022-11-10T21:06:18.979Z,9.20
2022-11-10T21:08:46.955Z,9.15
2022-11-10T21:11:33.799Z,9.20
2022-11-10T21:14:02.285Z,9.24
2022-11-10T21:16:29.080Z,9.21
2022-11-10T21:18:56.919Z,9.22
2022-11-10T21:21:34.718Z,9.32
2022-11-10T21:24:06.196Z,9.23
2022-11-10T21:26:34.428Z,9.24
2022-11-10T21:29:02.513Z,9.15
2022-11-10T21:31:30.733Z,9.14
2022-11-10T21:33:58.461Z,9.05
2022-11-10T21:36:29.453Z,9.13
2022-11-10T21:38:57.147Z,9.20
2022-11-10T21:41:24.013Z,9.17
2022-11-10T21:43:50.693Z,9.13
2022-11-10T21:46:17.767Z,9.21
2022-11-10T21:48:45.336Z,9.18
2022-11-10T21:51:14.186Z,9.15
2022-11-10T21:53:41.935Z,9.35
2022-11-10T21:56:10.517Z,9.30
2022-11-10T21:58:37.510Z,9.22
2022-11-10T22:01:07.567Z,9.13
2022-11-10T22:03:34.923Z,9.17
2022-11-10T22:06:10.347Z,9.20
2022-11-10T22:08:38.532Z,9.07
2022-11-10T22:11:25.020Z,9.07
2022-11-10T22:14:10.182Z,9.05
2022-11-10T22:17:05.684Z,8.93
2022-11-10T22:19:33.636Z,8.68
2022-11-10T22:22:03.742Z,8.67
2022-11-10T22:24:31.027Z,8.62
2022-11-10T22:27:03.516Z,8.56
2022-11-10T22:29:32.348Z,8.51
2022-11-10T22:32:02.585Z,8.45
2022-11-10T22:34:29.452Z,8.39
2022-11-10T22:36:56.191Z,8.26
2022-11-10T22:39:23.042Z,8.22
2022-11-10T22:42:08.245Z,8.12
2022-11-10T22:44:34.880Z,7.99
2022-11-10T22:47:02.122Z,7.93
2022-11-10T22:49:28.642Z,8.05
2022-11-10T22:51:55.628Z,7.98
2022-11-10T22:54:23.895Z,7.89
2022-11-10T22:56:51.607Z,7.78
2022-11-10T22:59:19.307Z,7.75
2022-11-10T23:01:46.463Z,7.70
2022-11-10T23:04:16.058Z,7.61
2022-11-10T23:06:43.113Z,7.62
2022-11-10T23:09:09.694Z,7.62
2022-11-10T23:11:36.476Z,7.57
2022-11-10T23:14:03.138Z,7.54
2022-11-10T23:16:32.753Z,7.49
2022-11-10T23:18:59.687Z,7.42
2022-11-10T23:21:28.952Z,7.39
2022-11-10T23:23:56.177Z,7.27
2022-11-10T23:26:26.589Z,7.22
2022-11-10T23:28:54.480Z,7.16
2022-11-10T23:31:24.111Z,7.12
2022-11-10T23:33:53.527Z,7.15
2022-11-10T23:36:21.786Z,7.19
2022-11-10T23:38:48.857Z,7.27
2022-11-10T23:41:23.629Z,7.26
2022-11-10T23:43:50.351Z,7.21
2022-11-10T23:46:17.585Z,7.19
2022-11-10T23:48:44.513Z,7.21
2022-11-10T23:51:13.101Z,7.23
2022-11-10T23:53:40.395Z,7.05
2022-11-10T23:56:11.179Z,6.99
2022-11-10T23:58:38.096Z,7.04
